Time;durP1;ratioP1;P1;durP2;ratioP2;P2;SDS_P1;SDS_P2;PMS_P1;PMS_P2;Temp;Humidity;BMP_temperature;BMP_pressure;BME280_temperature;BME280_humidity;BME280_pressure;Samples;Min_cycle;Max_cycle;Signal;HPM_P1;HPM_P2
2023/09/03 00:01:30;;;;;;;17.73;11.90;;;;;;;23.15;54.13;102723.69;4985498;28;20401;-34
2023/09/03 00:03:57;;;;;;;19.38;11.95;;;;;;;23.13;54.27;102721.16;4985850;28;20050;-34
2023/09/03 00:06:23;;;;;;;17.92;11.30;;;;;;;23.12;53.92;102724.84;4983235;28;20363;-34
2023/09/03 00:08:50;;;;;;;16.65;10.43;;;;;;;23.10;54.00;102716.00;4984535;28;20062;-34
2023/09/03 00:11:17;;;;;;;18.10;11.77;;;;;;;23.10;53.98;102731.41;4983312;28;20210;-34
2023/09/03 00:13:43;;;;;;;16.30;10.75;;;;;;;23.07;53.94;102726.25;4984732;28;20481;-34
2023/09/03 00:16:10;;;;;;;18.70;11.93;;;;;;;23.06;54.09;102735.38;4984039;28;20410;-34
2023/09/03 00:18:37;;;;;;;15.02;10.82;;;;;;;23.04;54.58;102731.97;4983755;28;20050;-34
2023/09/03 00:21:05;;;;;;;15.30;10.27;;;;;;;23.03;54.49;102725.69;4985279;28;20050;-34
2023/09/03 00:23:32;;;;;;;17.75;11.02;;;;;;;23.03;54.49;102731.09;4981452;28;20343;-34
2023/09/03 00:26:00;;;;;;;16.27;10.50;;;;;;;23.01;54.02;102726.84;4982967;28;20121;-34
2023/09/03 00:28:27;;;;;;;15.98;10.57;;;;;;;23.00;54.42;102725.16;4982064;28;20042;-34
2023/09/03 00:31:07;;;;;;;14.75;9.40;;;;;;;22.98;54.21;102713.59;4980851;28;20786;-34
2023/09/03 00:33:34;;;;;;;15.57;9.68;;;;;;;22.97;54.03;102715.44;4983658;28;20108;-34
2023/09/03 00:36:03;;;;;;;15.73;10.23;;;;;;;22.96;54.22;102712.91;4982209;28;20050;-34
2023/09/03 00:38:31;;;;;;;14.98;9.93;;;;;;;22.95;54.15;102719.28;4979925;28;20116;-34
2023/09/03 00:40:58;;;;;;;12.63;8.70;;;;;;;22.92;54.19;102712.31;4980373;28;20501;-34
2023/09/03 00:43:27;;;;;;;13.90;8.77;;;;;;;22.89;54.27;102713.41;4983857;28;20061;-34
2023/09/03 00:45:53;;;;;;;14.75;9.80;;;;;;;22.89;54.09;102715.25;4983046;28;20349;-34
2023/09/03 00:48:24;;;;;;;13.05;8.82;;;;;;;22.88;54.23;102703.59;4982831;28;20062;-34
2023/09/03 00:50:51;;;;;;;14.13;9.00;;;;;;;22.87;54.46;102709.13;4982796;28;20046;-34
2023/09/03 00:53:20;;;;;;;13.15;8.98;;;;;;;22.84;54.47;102713.00;4984911;28;20093;-34
2023/09/03 00:55:47;;;;;;;11.85;8.45;;;;;;;22.84;54.50;102720.25;4986213;28;20078;-34
2023/09/03 00:58:14;;;;;;;12.32;8.85;;;;;;;22.82;54.56;102719.50;4981295;28;20142;-34
2023/09/03 01:00:41;;;;;;;13.65;8.75;;;;;;;22.81;54.20;102709.72;4981009;28;20434;-34
2023/09/03 01:03:08;;;;;;;12.93;9.20;;;;;;;22.81;54.08;102712.41;4985828;28;20046;-34
2023/09/03 01:05:35;;;;;;;12.27;8.07;;;;;;;22.79;54.56;102708.97;4979029;28;20324;-34
2023/09/03 01:08:02;;;;;;;12.27;7.90;;;;;;;22.78;54.26;102704.56;4979451;28;20061;-34
2023/09/03 01:10:44;;;;;;;12.93;7.60;;;;;;;22.75;54.52;102712.94;4980927;28;20354;-34
2023/09/03 01:13:17;;;;;;;11.88;8.27;;;;;;;22.76;54.39;102714.69;4982143;28;20497;-34
2023/09/03 01:15:48;;;;;;;11.15;7.95;;;;;;;22.75;54.55;102712.94;4980905;28;20058;-34
2023/09/03 01:18:24;;;;;;;10.88;7.65;;;;;;;22.73;54.34;102713.09;4982127;28;20133;-34
2023/09/03 01:21:29;;;;;;;12.43;7.93;;;;;;;22.70;54.27;102710.66;5010248;28;20109;-34
2023/09/03 01:23:55;;;;;;;11.90;8.07;;;;;;;22.71;54.33;102714.22;4981476;28;20050;-34
2023/09/03 01:26:58;;;;;;;10.35;6.82;;;;;;;22.67;54.39;102719.06;4983757;28;20426;-34
2023/09/03 01:29:27;;;;;;;11.68;7.38;;;;;;;22.67;54.75;102725.34;4981669;28;20140;-34
2023/09/03 01:31:55;;;;;;;10.65;6.82;;;;;;;22.65;54.36;102727.31;4983343;28;20051;-34
2023/09/03 01:34:22;;;;;;;10.55;6.72;;;;;;;22.64;54.50;102728.31;4981228;28;20105;-34
2023/09/03 01:36:49;;;;;;;10.82;7.25;;;;;;;22.63;54.55;102728.44;4981664;28;20129;-34
2023/09/03 01:39:17;;;;;;;10.13;6.93;;;;;;;22.62;54.70;102737.53;4982185;28;20121;-34
2023/09/03 01:41:44;;;;;;;12.32;6.78;;;;;;;22.60;54.48;102745.81;4981032;28;20057;-33
2023/09/03 01:44:11;;;;;;;10.63;6.20;;;;;;;22.59;54.20;102752.22;4978182;28;20073;-33
2023/09/03 01:46:48;;;;;;;10.85;6.78;;;;;;;22.57;54.73;102754.16;4982310;28;20068;-34
2023/09/03 01:49:46;;;;;;;10.05;6.35;;;;;;;22.54;54.90;102767.94;4983234;28;20054;-34
2023/09/03 01:52:27;;;;;;;11.27;7.38;;;;;;;22.55;54.41;102766.97;4982314;28;20141;-34
2023/09/03 01:54:56;;;;;;;8.40;5.85;;;;;;;22.55;54.67;102760.69;5010358;28;20074;-34
2023/09/03 01:57:33;;;;;;;9.40;6.57;;;;;;;22.53;54.67;102751.88;4981714;28;20105;-34
2023/09/03 02:00:07;;;;;;;10.07;6.60;;;;;;;22.52;54.64;102758.28;4977136;28;20058;-34
2023/09/03 02:02:36;;;;;;;8.10;6.20;;;;;;;22.52;54.44;102745.63;4982827;28;20517;-34
2023/09/03 02:05:03;;;;;;;11.45;6.70;;;;;;;22.51;54.33;102726.84;5011566;28;20122;-34
2023/09/03 02:07:30;;;;;;;8.75;5.93;;;;;;;22.50;54.63;102735.94;4982507;28;20051;-34
2023/09/03 02:09:57;;;;;;;9.43;6.25;;;;;;;22.49;54.80;102742.34;4978956;28;20084;-34
2023/09/03 02:12:24;;;;;;;9.80;6.30;;;;;;;22.48;54.55;102740.66;4983056;28;20083;-34
2023/09/03 02:14:52;;;;;;;9.68;6.50;;;;;;;22.48;54.75;102743.34;4981046;28;20079;-34
2023/09/03 02:17:19;;;;;;;10.30;6.40;;;;;;;22.47;54.72;102739.75;4981565;28;20441;-34
2023/09/03 02:19:50;;;;;;;8.90;5.82;;;;;;;22.46;54.61;102739.91;4982931;28;20127;-34
2023/09/03 02:22:17;;;;;;;8.65;5.95;;;;;;;22.45;54.71;102746.31;4987406;28;20346;-34
2023/09/03 02:24:44;;;;;;;8.40;5.30;;;;;;;22.44;54.52;102745.47;4987234;28;20054;-34
2023/09/03 02:27:11;;;;;;;8.38;5.65;;;;;;;22.42;54.76;102739.31;4983630;28;20129;-34
2023/09/03 02:29:39;;;;;;;7.82;5.40;;;;;;;22.42;54.53;102731.22;4985621;28;20382;-34
2023/09/03 02:32:06;;;;;;;7.82;5.40;;;;;;;22.41;54.65;102719.56;4985928;28;20073;-34
2023/09/03 02:34:36;;;;;;;8.15;5.57;;;;;;;22.40;54.60;102698.94;4987468;28;20142;-34
2023/09/03 02:37:03;;;;;;;7.40;5.40;;;;;;;22.39;54.47;102694.53;4988225;28;20567;-34
2023/09/03 02:39:29;;;;;;;7.78;5.00;;;;;;;22.39;54.50;102683.72;4984668;28;20350;-34
2023/09/03 02:41:57;;;;;;;7.57;5.20;;;;;;;22.39;54.75;102682.84;4985443;28;20290;-34
2023/09/03 02:44:24;;;;;;;7.38;4.95;;;;;;;22.38;54.77;102686.56;4985321;28;20057;-33
2023/09/03 02:46:52;;;;;;;6.65;4.82;;;;;;;22.38;54.78;102686.56;4984453;28;20459;-34
2023/09/03 02:49:20;;;;;;;6.75;4.82;;;;;;;22.37;54.56;102691.09;4986063;28;20144;-34
2023/09/03 02:51:46;;;;;;;7.25;4.50;;;;;;;22.36;54.75;102700.22;4983023;28;20089;-34
2023/09/03 02:54:13;;;;;;;5.88;4.45;;;;;;;22.36;54.82;102712.88;4983366;28;20058;-34
2023/09/03 02:56:40;;;;;;;7.43;5.05;;;;;;;22.36;54.71;102712.88;4983508;28;20051;-34
2023/09/03 02:59:06;;;;;;;6.65;4.40;;;;;;;22.35;54.61;102713.84;4985361;28;20050;-33
2023/09/03 03:01:33;;;;;;;6.25;4.25;;;;;;;22.35;54.30;102694.91;4990521;28;20093;-33
2023/09/03 03:04:01;;;;;;;6.32;4.40;;;;;;;22.35;54.62;102700.31;4984178;28;20489;-34
2023/09/03 03:06:27;;;;;;;6.57;4.32;;;;;;;22.34;54.60;102714.84;4987107;28;20136;-34
2023/09/03 03:08:54;;;;;;;5.72;4.05;;;;;;;22.33;54.37;102724.78;4985122;28;20090;-34
2023/09/03 03:11:22;;;;;;;6.13;4.28;;;;;;;22.34;54.32;102722.94;4982447;28;20058;-34
2023/09/03 03:13:51;;;;;;;6.18;4.05;;;;;;;22.32;54.78;102738.44;4982651;28;20160;-34
2023/09/03 03:16:18;;;;;;;5.28;4.00;;;;;;;22.32;54.36;102741.16;4983337;28;20137;-34
2023/09/03 03:18:45;;;;;;;4.78;3.53;;;;;;;22.33;54.51;102756.34;4987455;28;20327;-34
2023/09/03 03:21:22;;;;;;;5.43;3.95;;;;;;;22.31;54.43;102761.03;4984378;28;20179;-34
2023/09/03 03:23:51;;;;;;;6.40;4.38;;;;;;;22.31;54.35;102761.91;4983124;28;20470;-33
2023/09/03 03:26:19;;;;;;;5.40;3.92;;;;;;;22.30;54.49;102770.13;4984420;28;20100;-34
2023/09/03 03:28:45;;;;;;;5.45;3.70;;;;;;;22.30;54.56;102756.63;4984293;28;20054;-33
2023/09/03 03:31:15;;;;;;;6.53;3.92;;;;;;;22.31;54.54;102761.91;4984640;28;20105;-33
2023/09/03 03:33:43;;;;;;;7.03;4.03;;;;;;;22.28;54.37;102759.47;4987411;28;20315;-33
2023/09/03 03:36:19;;;;;;;6.90;3.90;;;;;;;22.27;54.41;102755.06;4985184;28;20088;-33
2023/09/03 03:38:46;;;;;;;6.18;4.10;;;;;;;22.28;54.62;102755.91;4985757;28;21770;-33
2023/09/03 03:41:15;;;;;;;4.90;3.63;;;;;;;22.27;54.66;102760.47;4986525;28;20283;-33
2023/09/03 03:43:44;;;;;;;6.03;3.80;;;;;;;22.27;54.22;102754.19;4982901;28;20138;-33
2023/09/03 03:46:14;;;;;;;4.72;3.50;;;;;;;22.26;54.41;102747.06;4987368;28;20142;-33
2023/09/03 03:48:41;;;;;;;4.93;3.30;;;;;;;22.24;54.16;102749.94;4983655;28;20390;-33
2023/09/03 03:51:08;;;;;;;5.80;3.38;;;;;;;22.22;54.48;102757.28;4985447;28;20102;-33
2023/09/03 03:53:34;;;;;;;5.82;3.42;;;;;;;22.22;54.33;102757.28;4982775;28;20482;-33
2023/09/03 03:56:09;;;;;;;5.03;3.38;;;;;;;22.21;54.36;102758.28;4985617;28;20050;-33
2023/09/03 03:58:39;;;;;;;4.70;3.17;;;;;;;22.21;54.32;102760.16;4985121;28;20058;-33
2023/09/03 04:01:20;;;;;;;4.97;3.08;;;;;;;22.18;54.42;102775.63;4984388;28;20050;-33
2023/09/03 04:03:48;;;;;;;5.35;3.70;;;;;;;22.18;54.55;102772.91;4986076;28;20081;-33
2023/09/03 04:06:15;;;;;;;5.20;3.47;;;;;;;22.18;54.52;102754.00;4987419;28;20066;-33
2023/09/03 04:08:45;;;;;;;3.80;2.90;;;;;;;22.18;54.28;102774.75;4983838;28;20122;-33
2023/09/03 04:11:13;;;;;;;3.58;2.85;;;;;;;22.17;54.50;102786.56;4985903;28;20054;-33
2023/09/03 04:13:40;;;;;;;4.65;3.15;;;;;;;22.15;54.18;102784.00;4983390;28;20120;-33
2023/09/03 04:16:13;;;;;;;3.92;2.88;;;;;;;22.15;54.12;102775.91;4985667;28;20128;-33
2023/09/03 04:18:41;;;;;;;5.55;3.40;;;;;;;22.15;54.29;102773.22;4981447;28;20047;-33
2023/09/03 04:21:07;;;;;;;4.38;3.35;;;;;;;22.14;54.27;102768.75;4984336;28;20058;-33
2023/09/03 04:23:35;;;;;;;4.30;3.08;;;;;;;22.14;54.40;102781.41;4983519;28;20082;-33
2023/09/03 04:26:01;;;;;;;3.22;2.70;;;;;;;22.14;54.04;102778.72;4981697;28;20051;-33
2023/09/03 04:28:28;;;;;;;5.78;3.42;;;;;;;22.13;54.20;102775.16;4983217;28;20058;-33
2023/09/03 04:30:59;;;;;;;4.90;2.70;;;;;;;22.13;54.21;102774.31;4982061;28;20058;-33
2023/09/03 04:33:26;;;;;;;4.35;2.78;;;;;;;22.12;54.19;102773.44;4982732;28;20050;-33
2023/09/03 04:36:00;;;;;;;3.83;2.78;;;;;;;22.12;54.50;102769.88;4983378;28;20134;-33
2023/09/03 04:38:27;;;;;;;3.85;2.85;;;;;;;22.12;54.44;102773.44;4984934;28;20111;-33
2023/09/03 04:40:55;;;;;;;3.53;2.75;;;;;;;22.11;54.42;102769.03;4985737;28;20054;-33
2023/09/03 04:43:26;;;;;;;3.70;2.90;;;;;;;22.11;54.35;102773.53;4981537;28;20054;-33
2023/09/03 04:45:53;;;;;;;4.50;2.33;;;;;;;22.11;54.33;102779.84;4983231;28;20050;-33
2023/09/03 04:48:21;;;;;;;3.28;2.30;;;;;;;22.10;54.35;102771.84;4981486;28;20596;-33
2023/09/03 04:50:48;;;;;;;4.00;2.80;;;;;;;22.10;54.22;102778.09;4981850;28;20046;-33
2023/09/03 04:53:15;;;;;;;3.90;2.78;;;;;;;22.09;54.19;102779.09;4980265;28;20382;-33
2023/09/03 04:55:42;;;;;;;3.75;2.85;;;;;;;22.09;54.34;102780.94;5011115;28;20053;-33
2023/09/03 04:58:08;;;;;;;3.10;2.55;;;;;;;22.09;54.12;102784.50;4985531;28;20054;-33
2023/09/03 05:00:36;;;;;;;3.50;2.33;;;;;;;22.08;54.10;102787.34;4983821;28;20061;-33
2023/09/03 05:03:04;;;;;;;3.95;2.88;;;;;;;22.08;54.24;102793.59;4983955;28;20105;-33
2023/09/03 05:05:38;;;;;;;3.58;2.85;;;;;;;22.07;54.17;102791.00;4983302;28;20047;-33
2023/09/03 05:08:05;;;;;;;6.38;2.78;;;;;;;22.07;54.11;102801.81;4981948;28;20638;-33
2023/09/03 05:10:31;;;;;;;3.92;2.40;;;;;;;22.06;54.08;102806.34;4975540;28;20339;-33
2023/09/03 05:12:58;;;;;;;3.20;2.15;;;;;;;22.06;54.50;102803.66;4987955;28;20050;-33
2023/09/03 05:15:24;;;;;;;3.28;2.17;;;;;;;22.06;54.52;102816.31;4986669;28;20113;-33
2023/09/03 05:17:51;;;;;;;2.75;2.22;;;;;;;22.05;54.21;102820.84;4981992;28;20112;-33
2023/09/03 05:20:18;;;;;;;3.47;2.42;;;;;;;22.05;54.49;102822.69;4984687;28;20185;-33
2023/09/03 05:22:44;;;;;;;3.15;2.28;;;;;;;22.06;53.94;102819.00;4985178;28;20116;-33
2023/09/03 05:25:11;;;;;;;3.85;2.17;;;;;;;22.05;54.35;102834.34;4979996;28;20078;-33
2023/09/03 05:27:37;;;;;;;3.40;2.13;;;;;;;22.05;54.33;102841.59;4982022;28;20346;-33
2023/09/03 05:30:06;;;;;;;3.58;2.75;;;;;;;22.05;54.20;102837.06;4980400;28;20113;-33
2023/09/03 05:32:32;;;;;;;3.15;1.92;;;;;;;22.04;54.32;102835.34;4980098;28;20050;-33
2023/09/03 05:34:59;;;;;;;2.22;1.77;;;;;;;22.05;54.08;102842.47;4980823;28;20081;-33
2023/09/03 05:37:25;;;;;;;4.38;2.13;;;;;;;22.05;54.00;102852.41;4980370;28;20058;-33
2023/09/03 05:39:52;;;;;;;4.35;2.20;;;;;;;22.05;54.34;102855.13;4979408;28;20055;-33
2023/09/03 05:42:19;;;;;;;3.03;1.90;;;;;;;22.05;54.09;102860.50;4983301;28;20081;-33
2023/09/03 05:44:48;;;;;;;3.00;2.22;;;;;;;22.05;54.19;102853.25;4975514;28;20147;-33
2023/09/03 05:47:18;;;;;;;2.65;2.00;;;;;;;22.05;54.31;102855.97;4982721;28;20046;-33
2023/09/03 05:49:46;;;;;;;4.18;2.35;;;;;;;22.06;53.98;102859.50;4980594;28;20043;-33
2023/09/03 05:52:12;;;;;;;3.33;2.17;;;;;;;22.06;54.15;102856.81;4979009;28;20043;-33
2023/09/03 05:54:39;;;;;;;2.50;2.00;;;;;;;22.06;54.29;102860.38;4978506;28;20134;-33
2023/09/03 05:57:05;;;;;;;2.65;2.08;;;;;;;22.07;54.12;102862.09;4983142;28;20050;-33
2023/09/03 05:59:32;;;;;;;2.13;1.50;;;;;;;22.07;54.08;102869.31;4983145;28;20074;-33
2023/09/03 06:01:59;;;;;;;3.03;2.20;;;;;;;22.07;54.16;102872.03;4985181;28;20069;-33
2023/09/03 06:04:25;;;;;;;4.20;2.15;;;;;;;22.07;53.78;102883.72;4982120;28;20050;-33
2023/09/03 06:06:52;;;;;;;2.80;2.05;;;;;;;22.08;53.75;102884.56;4983400;28;20051;-33
2023/09/03 06:09:18;;;;;;;3.03;1.63;;;;;;;22.09;54.08;102883.56;4982664;28;20097;-33
2023/09/03 06:11:47;;;;;;;1.92;1.60;;;;;;;22.09;54.07;102878.16;4982638;28;20051;-33
2023/09/03 06:14:14;;;;;;;2.30;1.60;;;;;;;22.08;54.18;102890.81;4985636;28;20109;-34
2023/09/03 06:16:40;;;;;;;2.42;2.00;;;;;;;22.09;53.82;102891.66;4984075;28;20433;-33
2023/09/03 06:19:07;;;;;;;2.60;1.90;;;;;;;22.09;54.23;102897.06;4984094;28;20147;-33
2023/09/03 06:21:33;;;;;;;2.65;1.92;;;;;;;22.09;54.10;102895.22;4986337;28;20114;-33
2023/09/03 06:24:00;;;;;;;1.88;1.60;;;;;;;22.10;53.92;102894.22;4983777;28;20140;-33
2023/09/03 06:26:26;;;;;;;2.13;1.60;;;;;;;22.10;54.07;102901.47;4983072;28;20125;-33
2023/09/03 06:28:53;;;;;;;2.70;1.80;;;;;;;22.11;53.80;102901.38;4983876;28;20054;-33
2023/09/03 06:31:20;;;;;;;2.50;1.73;;;;;;;22.11;53.82;102904.06;4981538;28;20051;-33
2023/09/03 06:33:46;;;;;;;3.50;1.77;;;;;;;22.12;54.03;102902.22;4982704;28;20050;-33
2023/09/03 06:36:15;;;;;;;2.28;1.85;;;;;;;22.11;53.88;102895.09;4984719;28;20768;-33
2023/09/03 06:38:44;;;;;;;2.67;1.70;;;;;;;22.11;53.83;102898.66;4980887;28;20129;-33
2023/09/03 06:41:11;;;;;;;1.83;1.40;;;;;;;22.13;53.81;102899.41;4982270;28;20137;-33
2023/09/03 06:43:38;;;;;;;1.80;1.50;;;;;;;22.13;53.83;102899.41;4978032;28;20078;-33
2023/09/03 06:46:05;;;;;;;3.08;1.70;;;;;;;22.14;53.82;102894.84;4981572;28;20054;-33
2023/09/03 06:48:32;;;;;;;3.63;1.88;;;;;;;22.13;53.85;102888.59;4984096;28;20085;-33
2023/09/03 06:50:58;;;;;;;2.35;1.60;;;;;;;22.15;53.84;102893.88;4987583;28;20464;-33
2023/09/03 06:53:25;;;;;;;2.15;1.40;;;;;;;22.16;53.91;102906.41;5015446;28;20056;-33
2023/09/03 06:55:52;;;;;;;2.63;1.83;;;;;;;22.16;53.96;102904.56;4984744;28;20104;-33
2023/09/03 06:58:19;;;;;;;2.67;1.80;;;;;;;22.17;53.74;102914.38;4981948;28;20054;-33
2023/09/03 07:00:46;;;;;;;2.75;1.75;;;;;;;22.17;53.90;102908.09;5011763;28;20051;-33
2023/09/03 07:03:17;;;;;;;3.10;1.48;;;;;;;22.18;53.92;102912.50;4986198;28;20078;-33
2023/09/03 07:05:43;;;;;;;2.05;1.73;;;;;;;22.19;53.91;102925.03;4983324;28;20061;-33
2023/09/03 07:08:10;;;;;;;3.33;1.40;;;;;;;22.18;53.64;102917.91;4988025;28;20058;-33
2023/09/03 07:10:36;;;;;;;2.72;1.80;;;;;;;22.21;53.74;102924.91;4987591;28;20085;-33
2023/09/03 07:13:03;;;;;;;2.42;1.80;;;;;;;22.21;53.67;102927.63;4984128;28;20054;-33
2023/09/03 07:15:30;;;;;;;1.63;1.30;;;;;;;22.23;53.89;102931.03;4985247;28;20058;-34
2023/09/03 07:17:57;;;;;;;2.25;1.52;;;;;;;22.23;53.81;102922.94;4988704;28;20078;-34
2023/09/03 07:20:23;;;;;;;2.78;1.30;;;;;;;22.24;53.50;102927.38;4982616;28;20160;-34
2023/09/03 07:22:50;;;;;;;2.17;1.50;;;;;;;22.24;53.79;102924.66;4987009;28;20046;-34
2023/09/03 07:25:16;;;;;;;1.85;1.30;;;;;;;22.24;53.77;102930.91;5009389;28;20101;-33
2023/09/03 07:27:43;;;;;;;2.40;1.67;;;;;;;22.26;53.67;102936.19;4980450;28;20053;-34
2023/09/03 07:30:11;;;;;;;2.08;1.42;;;;;;;22.25;53.67;102932.63;4980449;28;20181;-34
2023/09/03 07:32:38;;;;;;;2.40;1.52;;;;;;;22.26;53.45;102928.06;4973747;28;20073;-34
2023/09/03 07:35:06;;;;;;;3.50;1.52;;;;;;;22.28;53.65;102929.66;4978016;28;20059;-34
2023/09/03 07:37:33;;;;;;;3.17;1.67;;;;;;;22.29;53.75;102935.91;4977287;28;20043;-34
2023/09/03 07:40:00;;;;;;;3.17;1.48;;;;;;;22.30;53.52;102945.72;4974740;28;20055;-34
2023/09/03 07:42:27;;;;;;;1.52;1.23;;;;;;;22.29;53.47;102947.59;5008896;28;20050;-34
2023/09/03 07:44:54;;;;;;;1.75;1.30;;;;;;;22.31;53.16;102952.84;4985116;28;20466;-34
2023/09/03 07:47:20;;;;;;;1.85;1.52;;;;;;;22.31;53.48;102967.22;4991166;28;20045;-34
2023/09/03 07:49:47;;;;;;;1.95;1.20;;;;;;;22.31;53.40;102963.66;4984606;28;20158;-34
2023/09/03 07:52:13;;;;;;;1.77;1.60;;;;;;;22.33;53.62;102959.84;4981034;28;20132;-34
2023/09/03 07:54:40;;;;;;;2.33;1.48;;;;;;;22.34;53.35;102961.53;4980145;28;20110;-34
2023/09/03 07:57:07;;;;;;;1.92;1.55;;;;;;;22.35;53.34;102959.69;4985812;28;20105;-34
2023/09/03 07:59:34;;;;;;;2.63;1.45;;;;;;;22.35;53.23;102954.28;4981185;28;20101;-35
2023/09/03 08:02:02;;;;;;;2.35;1.55;;;;;;;22.36;53.21;102951.47;4984651;28;20085;-34
2023/09/03 08:04:28;;;;;;;2.65;1.45;;;;;;;22.38;53.21;102959.44;4980325;28;20510;-34
2023/09/03 08:06:55;;;;;;;1.73;1.48;;;;;;;22.38;53.39;102954.03;4985158;28;20356;-34
2023/09/03 08:09:24;;;;;;;2.25;1.63;;;;;;;22.39;53.27;102958.44;4983685;28;20050;-34
2023/09/03 08:11:51;;;;;;;1.90;1.60;;;;;;;22.40;53.66;102960.19;4979845;28;20141;-34
2023/09/03 08:14:18;;;;;;;2.53;1.58;;;;;;;22.41;53.60;102961.91;4976860;28;20057;-34
2023/09/03 08:16:45;;;;;;;2.03;1.30;;;;;;;22.41;53.46;102960.03;4983717;28;20125;-34
2023/09/03 08:19:11;;;;;;;2.22;1.60;;;;;;;22.43;52.98;102959.91;4981405;28;20050;-34
2023/09/03 08:21:39;;;;;;;1.77;1.42;;;;;;;22.43;53.52;102954.50;4989194;28;20058;-34
2023/09/03 08:24:06;;;;;;;2.78;1.20;;;;;;;22.44;53.05;102955.38;4982199;28;20042;-34
2023/09/03 08:26:32;;;;;;;2.50;1.60;;;;;;;22.45;53.38;102959.78;4983881;28;20096;-34
2023/09/03 08:28:59;;;;;;;1.95;1.55;;;;;;;22.46;53.31;102969.59;4981303;28;20425;-34
2023/09/03 08:31:25;;;;;;;2.65;2.00;;;;;;;22.46;53.07;102958.78;4980200;28;20057;-34
2023/09/03 08:33:53;;;;;;;2.30;2.05;;;;;;;22.47;53.50;102953.25;4979291;28;20045;-34
2023/09/03 08:36:24;;;;;;;2.85;1.88;;;;;;;22.48;53.14;102957.69;4978399;28;20047;-34
2023/09/03 08:38:52;;;;;;;2.53;1.70;;;;;;;22.49;53.22;102959.38;4981438;28;20055;-34
2023/09/03 08:41:21;;;;;;;2.53;1.90;;;;;;;22.50;53.14;102953.00;4980503;28;20057;-34
2023/09/03 08:43:50;;;;;;;2.22;1.52;;;;;;;22.52;53.28;102963.69;4981554;28;20058;-34
2023/09/03 08:46:19;;;;;;;2.28;1.70;;;;;;;22.54;53.00;102953.59;4982852;28;20054;-34
2023/09/03 08:48:47;;;;;;;2.65;1.60;;;;;;;22.54;53.31;102959.84;4983464;28;20144;-34
2023/09/03 08:51:17;;;;;;;3.00;2.00;;;;;;;22.57;53.45;102959.59;4985165;28;20109;-34
2023/09/03 08:53:45;;;;;;;4.85;2.95;;;;;;;22.59;53.20;102962.16;4985508;28;20070;-34
2023/09/03 08:56:12;;;;;;;4.70;3.10;;;;;;;22.61;53.24;102973.69;4966866;28;20085;-35
2023/09/03 08:58:38;;;;;;;9.48;3.53;;;;;;;22.61;53.66;102971.84;4975399;28;20494;-35
2023/09/03 09:01:08;;;;;;;6.15;3.10;;;;;;;22.64;53.54;102968.88;4975581;28;20082;-35
2023/09/03 09:03:36;;;;;;;9.70;3.53;;;;;;;22.65;53.84;102970.59;4976139;28;20082;-36
2023/09/03 09:06:05;;;;;;;7.22;3.63;;;;;;;22.66;53.42;102972.28;4972121;28;20100;-35
2023/09/03 09:08:32;;;;;;;5.15;3.35;;;;;;;22.68;53.80;102972.19;4974725;28;20061;-35
2023/09/03 09:11:04;;;;;;;7.95;3.97;;;;;;;22.71;53.59;102968.34;4972031;28;20052;-34
2023/09/03 09:13:35;;;;;;;6.70;3.97;;;;;;;22.73;54.18;102972.63;4972578;28;20038;-34
2023/09/03 09:16:02;;;;;;;4.82;3.60;;;;;;;22.77;54.09;102965.97;4974672;28;20383;-35
2023/09/03 09:18:29;;;;;;;5.72;3.30;;;;;;;22.81;53.83;102970.13;4972833;28;20386;-35
2023/09/03 09:20:59;;;;;;;7.03;3.80;;;;;;;22.86;53.91;102967.00;4974011;28;20065;-36
2023/09/03 09:23:26;;;;;;;6.13;3.50;;;;;;;22.92;53.84;102971.06;4977296;28;20046;-34
2023/09/03 09:25:59;;;;;;;6.50;3.63;;;;;;;22.95;53.88;102966.22;4971837;28;20573;-35
2023/09/03 09:28:26;;;;;;;6.30;3.75;;;;;;;22.99;53.94;102964.97;4972709;28;20148;-34
2023/09/03 09:30:57;;;;;;;6.10;3.10;;;;;;;23.05;53.59;102971.69;4972022;28;20448;-34
2023/09/03 09:33:25;;;;;;;5.95;3.15;;;;;;;23.09;53.78;102967.72;4976632;28;20053;-34
2023/09/03 09:35:53;;;;;;;4.25;3.08;;;;;;;23.14;53.67;102960.06;4976502;28;20057;-34
2023/09/03 09:38:34;;;;;;;8.68;3.38;;;;;;;23.19;53.14;102967.75;4974193;28;20129;-34
2023/09/03 09:41:20;;;;;;;4.75;2.78;;;;;;;23.24;53.37;102963.66;4970585;28;20046;-34
2023/09/03 09:43:46;;;;;;;7.88;4.68;;;;;;;23.33;53.10;102962.00;4973306;28;20053;-34
2023/09/03 09:46:33;;;;;;;42.80;24.75;;;;;;;23.45;53.90;102957.31;4975730;28;20053;-34
2023/09/03 09:49:01;;;;;;;45.28;26.67;;;;;;;23.54;52.83;102960.03;4973593;28;20090;-33
2023/09/03 09:51:29;;;;;;;37.78;21.00;;;;;;;23.61;51.85;102961.22;4973100;28;20077;-36
2023/09/03 09:53:57;;;;;;;24.17;15.43;;;;;;;23.68;52.64;102966.09;4971241;28;20054;-35
2023/09/03 09:56:29;;;;;;;25.98;13.93;;;;;;;23.73;53.00;102966.53;4972444;28;20145;-35
2023/09/03 09:58:59;;;;;;;24.27;13.73;;;;;;;23.78;54.49;102964.25;4974300;28;20052;-35
2023/09/03 10:01:40;;;;;;;26.52;14.95;;;;;;;23.84;53.69;102971.81;4973400;28;20054;-35
2023/09/03 10:04:07;;;;;;;28.10;15.18;;;;;;;23.89;53.84;102967.69;4974663;28;20051;-34
2023/09/03 10:06:34;;;;;;;29.77;15.35;;;;;;;23.96;54.33;102970.72;5004874;28;20053;-34
2023/09/03 10:09:03;;;;;;;27.52;12.40;;;;;;;24.00;52.99;102961.31;4972691;28;20058;-34
2023/09/03 10:11:29;;;;;;;32.72;13.88;;;;;;;24.04;53.09;102968.16;4970722;28;20113;-34
2023/09/03 10:13:56;;;;;;;35.47;15.45;;;;;;;24.09;52.73;102968.56;4974881;28;20105;-33
2023/09/03 10:16:23;;;;;;;27.15;13.23;;;;;;;24.13;52.78;102964.56;4974204;28;20398;-34
2023/09/03 10:18:50;;;;;;;27.63;13.32;;;;;;;24.19;52.36;102970.41;4972203;28;20046;-34
2023/09/03 10:21:23;;;;;;;30.83;15.32;;;;;;;24.21;52.29;102960.31;4970458;28;20494;-34
2023/09/03 10:24:13;;;;;;;27.35;10.90;;;;;;;24.25;52.01;102964.44;4971130;28;20331;-34
2023/09/03 10:26:44;;;;;;;23.30;10.25;;;;;;;24.28;51.59;102961.41;4972212;28;20050;-34
2023/09/03 10:29:13;;;;;;;31.85;9.77;;;;;;;24.31;51.09;102963.84;4972529;28;20051;-34
2023/09/03 10:31:41;;;;;;;21.45;9.85;;;;;;;24.33;50.82;102956.44;4974510;28;20051;-35
2023/09/03 10:34:09;;;;;;;23.65;9.98;;;;;;;24.34;51.80;102956.28;4968866;28;20054;-35
2023/09/03 10:36:37;;;;;;;19.50;9.25;;;;;;;24.36;51.53;102943.47;4974505;28;20132;-33
2023/09/03 10:39:23;;;;;;;25.27;8.27;;;;;;;24.36;51.28;102942.56;4968925;28;20050;-34
2023/09/03 10:42:15;;;;;;;18.33;8.05;;;;;;;24.38;51.25;102946.91;4974433;28;20058;-34
2023/09/03 10:44:43;;;;;;;14.32;6.95;;;;;;;24.43;51.14;102940.19;4973528;28;20517;-33
2023/09/03 10:47:17;;;;;;;15.10;8.35;;;;;;;24.44;50.72;102942.75;4977400;28;20101;-34
2023/09/03 10:49:46;;;;;;;12.80;6.90;;;;;;;24.44;50.98;102942.75;4970496;28;20073;-34
2023/09/03 10:52:31;;;;;;;23.92;6.57;;;;;;;24.44;51.01;102945.44;4979656;28;20050;-33
2023/09/03 10:55:14;;;;;;;34.15;9.93;;;;;;;24.46;50.77;102943.47;4975858;28;20075;-33
2023/09/03 10:57:43;;;;;;;56.22;12.90;;;;;;;24.52;51.05;102945.59;4974676;28;20050;-33
2023/09/03 11:00:13;;;;;;;36.53;11.27;;;;;;;24.54;50.60;102949.00;4978307;28;20386;-33
2023/09/03 11:02:40;;;;;;;29.33;9.88;;;;;;;24.57;50.94;102950.59;4983137;28;20409;-34
2023/09/03 11:05:16;;;;;;;24.95;8.77;;;;;;;24.60;51.30;102956.56;5014335;28;20054;-34
2023/09/03 11:07:44;;;;;;;21.35;8.77;;;;;;;24.63;51.12;102950.84;4977968;28;20454;-34
2023/09/03 11:10:19;;;;;;;17.40;9.05;;;;;;;24.66;51.29;102957.00;4973798;28;20906;-34
2023/09/03 11:12:47;;;;;;;17.77;8.23;;;;;;;24.69;51.07;102962.13;4976917;28;20054;-34
2023/09/03 11:15:14;;;;;;;17.15;8.13;;;;;;;24.70;51.19;102953.84;4975915;28;20058;-34
2023/09/03 11:17:42;;;;;;;15.50;7.60;;;;;;;24.72;51.01;102950.97;4974806;28;20512;-34
2023/09/03 11:20:11;;;;;;;15.10;7.65;;;;;;;24.74;50.53;102954.41;5007478;28;20386;-34
2023/09/03 11:22:37;;;;;;;14.32;7.13;;;;;;;24.75;50.64;102958.81;4980828;28;20062;-34
2023/09/03 11:25:07;;;;;;;14.82;7.32;;;;;;;24.77;50.81;102951.41;4979260;28;20500;-34
2023/09/03 11:27:33;;;;;;;14.65;7.15;;;;;;;24.79;50.40;102949.38;5010007;28;20387;-34
2023/09/03 11:30:07;;;;;;;14.68;6.97;;;;;;;24.79;50.57;102952.94;4976297;28;20085;-34